sensor_id;sensor_type;location;lat;lon;timestamp;P1;durP1;ratioP1;P2;durP2;ratioP2
21733;SDS011;11029;47.820;10.534;2023-04-25T00:01:28;3.28;;;2.00;;
21733;SDS011;11029;47.820;10.534;2023-04-25T00:03:55;1.92;;;1.80;;
21733;SDS011;11029;47.820;10.534;2023-04-25T00:06:24;3.75;;;2.03;;
21733;SDS011;11029;47.820;10.534;2023-04-25T00:08:52;2.40;;;1.70;;
21733;SDS011;11029;47.820;10.534;2023-04-25T00:11:20;2.08;;;1.88;;
21733;SDS011;11029;47.820;10.534;2023-04-25T00:13:46;4.18;;;2.00;;
21733;SDS011;11029;47.820;10.534;2023-04-25T00:16:16;4.40;;;2.00;;
21733;SDS011;11029;47.820;10.534;2023-04-25T00:18:43;3.10;;;1.95;;
21733;SDS011;11029;47.820;10.534;2023-04-25T00:21:10;2.53;;;1.60;;
21733;SDS011;11029;47.820;10.534;2023-04-25T00:23:36;3.83;;;2.00;;
21733;SDS011;11029;47.820;10.534;2023-04-25T00:26:04;2.55;;;1.90;;
21733;SDS011;11029;47.820;10.534;2023-04-25T00:28:31;2.47;;;1.77;;
21733;SDS011;11029;47.820;10.534;2023-04-25T00:30:58;2.20;;;1.73;;
21733;SDS011;11029;47.820;10.534;2023-04-25T00:33:25;2.22;;;2.00;;
21733;SDS011;11029;47.820;10.534;2023-04-25T00:35:51;2.33;;;1.80;;
21733;SDS011;11029;47.820;10.534;2023-04-25T00:38:18;3.72;;;2.30;;
21733;SDS011;11029;47.820;10.534;2023-04-25T00:40:45;2.50;;;2.10;;
21733;SDS011;11029;47.820;10.534;2023-04-25T00:43:11;2.08;;;1.88;;
21733;SDS011;11029;47.820;10.534;2023-04-25T00:45:39;3.25;;;1.80;;
21733;SDS011;11029;47.820;10.534;2023-04-25T00:48:06;2.67;;;2.00;;
21733;SDS011;11029;47.820;10.534;2023-04-25T00:50:33;4.03;;;2.13;;
21733;SDS011;11029;47.820;10.534;2023-04-25T00:53:01;3.80;;;1.85;;
21733;SDS011;11029;47.820;10.534;2023-04-25T00:55:29;2.85;;;2.30;;
21733;SDS011;11029;47.820;10.534;2023-04-25T00:57:57;4.63;;;1.90;;
21733;SDS011;11029;47.820;10.534;2023-04-25T01:00:24;2.08;;;1.90;;
21733;SDS011;11029;47.820;10.534;2023-04-25T01:02:51;3.75;;;1.92;;
21733;SDS011;11029;47.820;10.534;2023-04-25T01:05:34;1.90;;;1.70;;
21733;SDS011;11029;47.820;10.534;2023-04-25T01:08:01;3.05;;;2.05;;
21733;SDS011;11029;47.820;10.534;2023-04-25T01:10:28;3.70;;;1.80;;
21733;SDS011;11029;47.820;10.534;2023-04-25T01:12:55;3.20;;;2.10;;
21733;SDS011;11029;47.820;10.534;2023-04-25T01:15:23;2.20;;;1.90;;
21733;SDS011;11029;47.820;10.534;2023-04-25T01:17:49;4.22;;;2.00;;
21733;SDS011;11029;47.820;10.534;2023-04-25T01:20:16;3.72;;;2.30;;
21733;SDS011;11029;47.820;10.534;2023-04-25T01:22:43;1.92;;;1.70;;
21733;SDS011;11029;47.820;10.534;2023-04-25T01:25:11;3.67;;;2.03;;
21733;SDS011;11029;47.820;10.534;2023-04-25T01:27:38;5.50;;;2.10;;
21733;SDS011;11029;47.820;10.534;2023-04-25T01:30:05;3.22;;;2.10;;
21733;SDS011;11029;47.820;10.534;2023-04-25T01:32:33;3.70;;;2.22;;
21733;SDS011;11029;47.820;10.534;2023-04-25T01:35:05;2.50;;;2.00;;
21733;SDS011;11029;47.820;10.534;2023-04-25T01:37:39;2.85;;;2.47;;
21733;SDS011;11029;47.820;10.534;2023-04-25T01:40:08;4.35;;;2.08;;
21733;SDS011;11029;47.820;10.534;2023-04-25T01:42:37;2.50;;;2.30;;
21733;SDS011;11029;47.820;10.534;2023-04-25T01:45:07;2.38;;;1.83;;
21733;SDS011;11029;47.820;10.534;2023-04-25T01:47:35;3.22;;;2.13;;
21733;SDS011;11029;47.820;10.534;2023-04-25T01:50:02;3.58;;;2.05;;
21733;SDS011;11029;47.820;10.534;2023-04-25T01:52:31;3.13;;;1.85;;
21733;SDS011;11029;47.820;10.534;2023-04-25T01:55:00;3.10;;;1.77;;
21733;SDS011;11029;47.820;10.534;2023-04-25T01:57:31;2.65;;;2.03;;
21733;SDS011;11029;47.820;10.534;2023-04-25T01:59:59;3.30;;;2.30;;
21733;SDS011;11029;47.820;10.534;2023-04-25T02:02:37;2.90;;;1.98;;
21733;SDS011;11029;47.820;10.534;2023-04-25T02:05:13;2.65;;;2.05;;
21733;SDS011;11029;47.820;10.534;2023-04-25T02:07:41;2.70;;;2.08;;
21733;SDS011;11029;47.820;10.534;2023-04-25T02:10:08;2.20;;;1.77;;
21733;SDS011;11029;47.820;10.534;2023-04-25T02:12:47;7.15;;;2.33;;
21733;SDS011;11029;47.820;10.534;2023-04-25T02:15:23;3.65;;;2.03;;
21733;SDS011;11029;47.820;10.534;2023-04-25T02:17:54;2.42;;;1.90;;
21733;SDS011;11029;47.820;10.534;2023-04-25T02:20:21;4.80;;;2.13;;
21733;SDS011;11029;47.820;10.534;2023-04-25T02:22:50;2.13;;;1.48;;
21733;SDS011;11029;47.820;10.534;2023-04-25T02:25:17;2.17;;;1.67;;
21733;SDS011;11029;47.820;10.534;2023-04-25T02:27:46;1.70;;;1.55;;
21733;SDS011;11029;47.820;10.534;2023-04-25T02:30:13;2.10;;;1.88;;
21733;SDS011;11029;47.820;10.534;2023-04-25T02:32:41;4.18;;;1.48;;
21733;SDS011;11029;47.820;10.534;2023-04-25T02:35:08;3.35;;;1.90;;
21733;SDS011;11029;47.820;10.534;2023-04-25T02:37:36;3.72;;;1.60;;
21733;SDS011;11029;47.820;10.534;2023-04-25T02:40:05;4.22;;;1.70;;
21733;SDS011;11029;47.820;10.534;2023-04-25T02:42:32;5.38;;;3.10;;
21733;SDS011;11029;47.820;10.534;2023-04-25T02:44:59;3.95;;;1.73;;
21733;SDS011;11029;47.820;10.534;2023-04-25T02:47:26;2.97;;;1.55;;
21733;SDS011;11029;47.820;10.534;2023-04-25T02:49:53;2.88;;;1.50;;
21733;SDS011;11029;47.820;10.534;2023-04-25T02:52:20;3.20;;;1.85;;
21733;SDS011;11029;47.820;10.534;2023-04-25T02:54:54;4.25;;;1.92;;
21733;SDS011;11029;47.820;10.534;2023-04-25T02:57:21;2.85;;;1.95;;
21733;SDS011;11029;47.820;10.534;2023-04-25T02:59:48;1.98;;;1.80;;
21733;SDS011;11029;47.820;10.534;2023-04-25T03:02:14;2.20;;;1.85;;
21733;SDS011;11029;47.820;10.534;2023-04-25T03:04:41;2.33;;;1.70;;
21733;SDS011;11029;47.820;10.534;2023-04-25T03:07:09;2.80;;;2.15;;
21733;SDS011;11029;47.820;10.534;2023-04-25T03:09:36;3.65;;;2.17;;
21733;SDS011;11029;47.820;10.534;2023-04-25T03:12:03;3.67;;;2.22;;
21733;SDS011;11029;47.820;10.534;2023-04-25T03:14:32;4.07;;;2.60;;
21733;SDS011;11029;47.820;10.534;2023-04-25T03:16:59;2.58;;;2.17;;
21733;SDS011;11029;47.820;10.534;2023-04-25T03:19:26;2.58;;;2.38;;
21733;SDS011;11029;47.820;10.534;2023-04-25T03:21:53;2.83;;;2.50;;
21733;SDS011;11029;47.820;10.534;2023-04-25T03:24:19;5.00;;;2.63;;
21733;SDS011;11029;47.820;10.534;2023-04-25T03:26:47;4.03;;;2.42;;
21733;SDS011;11029;47.820;10.534;2023-04-25T03:29:13;12.40;;;7.32;;
21733;SDS011;11029;47.820;10.534;2023-04-25T03:31:41;9.52;;;6.68;;
21733;SDS011;11029;47.820;10.534;2023-04-25T03:34:08;7.00;;;5.45;;
21733;SDS011;11029;47.820;10.534;2023-04-25T03:36:38;13.70;;;8.95;;
21733;SDS011;11029;47.820;10.534;2023-04-25T03:39:07;12.82;;;8.52;;
21733;SDS011;11029;47.820;10.534;2023-04-25T03:41:33;7.18;;;5.05;;
21733;SDS011;11029;47.820;10.534;2023-04-25T03:44:05;5.43;;;3.80;;
21733;SDS011;11029;47.820;10.534;2023-04-25T03:46:32;4.03;;;3.20;;
21733;SDS011;11029;47.820;10.534;2023-04-25T03:48:59;7.43;;;4.78;;
21733;SDS011;11029;47.820;10.534;2023-04-25T03:51:38;5.95;;;4.60;;
21733;SDS011;11029;47.820;10.534;2023-04-25T03:54:06;5.70;;;3.78;;
21733;SDS011;11029;47.820;10.534;2023-04-25T03:56:50;9.05;;;5.75;;
21733;SDS011;11029;47.820;10.534;2023-04-25T03:59:20;14.65;;;9.48;;
21733;SDS011;11029;47.820;10.534;2023-04-25T04:01:47;3.65;;;3.10;;
21733;SDS011;11029;47.820;10.534;2023-04-25T04:04:14;4.93;;;2.97;;
21733;SDS011;11029;47.820;10.534;2023-04-25T04:06:42;5.20;;;3.88;;
21733;SDS011;11029;47.820;10.534;2023-04-25T04:09:14;7.53;;;3.90;;
21733;SDS011;11029;47.820;10.534;2023-04-25T04:11:42;4.80;;;3.42;;
21733;SDS011;11029;47.820;10.534;2023-04-25T04:14:09;4.70;;;3.03;;
21733;SDS011;11029;47.820;10.534;2023-04-25T04:16:40;3.47;;;3.13;;
21733;SDS011;11029;47.820;10.534;2023-04-25T04:19:08;7.15;;;3.00;;
21733;SDS011;11029;47.820;10.534;2023-04-25T04:21:35;4.80;;;3.60;;
21733;SDS011;11029;47.820;10.534;2023-04-25T04:24:02;3.45;;;3.13;;
21733;SDS011;11029;47.820;10.534;2023-04-25T04:26:37;4.18;;;3.40;;
21733;SDS011;11029;47.820;10.534;2023-04-25T04:29:11;3.85;;;3.45;;
21733;SDS011;11029;47.820;10.534;2023-04-25T04:31:42;5.70;;;4.20;;
21733;SDS011;11029;47.820;10.534;2023-04-25T04:34:09;9.93;;;5.18;;
21733;SDS011;11029;47.820;10.534;2023-04-25T04:36:37;9.07;;;4.72;;
21733;SDS011;11029;47.820;10.534;2023-04-25T04:39:06;8.00;;;4.93;;
21733;SDS011;11029;47.820;10.534;2023-04-25T04:41:56;17.75;;;11.63;;
21733;SDS011;11029;47.820;10.534;2023-04-25T04:44:37;5.78;;;4.28;;
21733;SDS011;11029;47.820;10.534;2023-04-25T04:47:23;16.65;;;5.13;;
21733;SDS011;11029;47.820;10.534;2023-04-25T04:50:11;5.40;;;3.67;;
21733;SDS011;11029;47.820;10.534;2023-04-25T04:52:53;6.60;;;4.73;;
21733;SDS011;11029;47.820;10.534;2023-04-25T04:55:34;5.80;;;3.70;;
21733;SDS011;11029;47.820;10.534;2023-04-25T04:58:21;3.72;;;2.42;;
21733;SDS011;11029;47.820;10.534;2023-04-25T05:01:07;5.10;;;2.90;;
21733;SDS011;11029;47.820;10.534;2023-04-25T05:03:53;4.28;;;3.05;;
21733;SDS011;11029;47.820;10.534;2023-04-25T05:06:40;4.45;;;2.90;;
21733;SDS011;11029;47.820;10.534;2023-04-25T05:09:26;3.65;;;2.92;;
21733;SDS011;11029;47.820;10.534;2023-04-25T05:12:13;5.95;;;3.50;;
21733;SDS011;11029;47.820;10.534;2023-04-25T05:15:05;6.97;;;3.63;;
21733;SDS011;11029;47.820;10.534;2023-04-25T05:17:51;7.00;;;3.58;;
21733;SDS011;11029;47.820;10.534;2023-04-25T05:20:31;7.35;;;4.30;;
21733;SDS011;11029;47.820;10.534;2023-04-25T05:23:17;5.45;;;3.78;;
21733;SDS011;11029;47.820;10.534;2023-04-25T05:25:44;7.57;;;4.32;;
21733;SDS011;11029;47.820;10.534;2023-04-25T05:28:33;7.10;;;4.28;;
21733;SDS011;11029;47.820;10.534;2023-04-25T05:31:27;7.78;;;3.55;;
21733;SDS011;11029;47.820;10.534;2023-04-25T05:34:23;6.07;;;3.70;;
21733;SDS011;11029;47.820;10.534;2023-04-25T05:36:54;6.60;;;3.90;;
21733;SDS011;11029;47.820;10.534;2023-04-25T05:39:21;6.65;;;3.67;;
21733;SDS011;11029;47.820;10.534;2023-04-25T05:42:07;6.75;;;3.85;;
21733;SDS011;11029;47.820;10.534;2023-04-25T05:44:55;4.88;;;3.53;;
21733;SDS011;11029;47.820;10.534;2023-04-25T05:47:38;6.10;;;3.58;;
21733;SDS011;11029;47.820;10.534;2023-04-25T05:52:50;8.07;;;3.80;;
21733;SDS011;11029;47.820;10.534;2023-04-25T05:55:28;5.55;;;3.30;;
21733;SDS011;11029;47.820;10.534;2023-04-25T05:57:56;4.88;;;3.38;;
21733;SDS011;11029;47.820;10.534;2023-04-25T06:00:23;5.90;;;3.38;;
21733;SDS011;11029;47.820;10.534;2023-04-25T06:02:50;4.68;;;2.70;;
21733;SDS011;11029;47.820;10.534;2023-04-25T06:05:18;6.43;;;3.55;;
21733;SDS011;11029;47.820;10.534;2023-04-25T06:07:46;7.72;;;3.15;;
21733;SDS011;11029;47.820;10.534;2023-04-25T06:10:13;5.35;;;2.97;;
21733;SDS011;11029;47.820;10.534;2023-04-25T06:12:41;8.43;;;3.53;;
21733;SDS011;11029;47.820;10.534;2023-04-25T06:15:08;4.57;;;2.65;;
21733;SDS011;11029;47.820;10.534;2023-04-25T06:17:52;4.55;;;3.28;;
21733;SDS011;11029;47.820;10.534;2023-04-25T06:20:19;4.90;;;3.05;;
21733;SDS011;11029;47.820;10.534;2023-04-25T06:22:50;4.10;;;2.90;;
21733;SDS011;11029;47.820;10.534;2023-04-25T06:25:19;6.90;;;2.80;;
21733;SDS011;11029;47.820;10.534;2023-04-25T06:27:46;4.32;;;2.55;;
21733;SDS011;11029;47.820;10.534;2023-04-25T06:30:13;8.43;;;3.08;;
21733;SDS011;11029;47.820;10.534;2023-04-25T06:32:40;6.05;;;2.80;;
21733;SDS011;11029;47.820;10.534;2023-04-25T06:35:07;4.68;;;2.33;;
21733;SDS011;11029;47.820;10.534;2023-04-25T06:37:34;4.10;;;2.70;;
21733;SDS011;11029;47.820;10.534;2023-04-25T06:40:01;3.95;;;2.40;;
21733;SDS011;11029;47.820;10.534;2023-04-25T06:42:28;4.75;;;3.00;;
21733;SDS011;11029;47.820;10.534;2023-04-25T06:44:57;6.35;;;2.78;;
21733;SDS011;11029;47.820;10.534;2023-04-25T06:47:25;6.15;;;2.65;;
21733;SDS011;11029;47.820;10.534;2023-04-25T06:49:51;5.38;;;2.67;;
21733;SDS011;11029;47.820;10.534;2023-04-25T06:52:19;7.22;;;2.35;;
21733;SDS011;11029;47.820;10.534;2023-04-25T06:54:46;3.75;;;2.13;;
21733;SDS011;11029;47.820;10.534;2023-04-25T06:57:32;3.65;;;2.38;;
21733;SDS011;11029;47.820;10.534;2023-04-25T07:00:13;4.38;;;2.42;;
21733;SDS011;11029;47.820;10.534;2023-04-25T07:02:41;3.88;;;2.20;;
21733;SDS011;11029;47.820;10.534;2023-04-25T07:05:09;4.80;;;2.50;;
21733;SDS011;11029;47.820;10.534;2023-04-25T07:07:36;4.70;;;2.30;;
21733;SDS011;11029;47.820;10.534;2023-04-25T07:10:03;7.00;;;2.65;;
21733;SDS011;11029;47.820;10.534;2023-04-25T07:12:30;3.17;;;2.15;;
21733;SDS011;11029;47.820;10.534;2023-04-25T07:14:57;3.35;;;2.13;;
21733;SDS011;11029;47.820;10.534;2023-04-25T07:17:24;4.28;;;1.88;;
21733;SDS011;11029;47.820;10.534;2023-04-25T07:19:50;4.20;;;1.90;;
21733;SDS011;11029;47.820;10.534;2023-04-25T07:22:17;2.85;;;1.90;;
21733;SDS011;11029;47.820;10.534;2023-04-25T07:24:45;2.97;;;1.70;;
21733;SDS011;11029;47.820;10.534;2023-04-25T07:27:17;2.28;;;1.60;;
21733;SDS011;11029;47.820;10.534;2023-04-25T07:29:54;2.92;;;1.80;;
21733;SDS011;11029;47.820;10.534;2023-04-25T07:32:22;4.68;;;2.03;;
21733;SDS011;11029;47.820;10.534;2023-04-25T07:34:49;2.03;;;1.67;;
21733;SDS011;11029;47.820;10.534;2023-04-25T07:37:17;2.60;;;1.50;;
21733;SDS011;11029;47.820;10.534;2023-04-25T07:40:01;4.55;;;1.83;;
21733;SDS011;11029;47.820;10.534;2023-04-25T07:42:31;1.88;;;1.55;;
21733;SDS011;11029;47.820;10.534;2023-04-25T07:44:58;3.15;;;1.50;;
21733;SDS011;11029;47.820;10.534;2023-04-25T07:47:26;3.47;;;1.77;;
21733;SDS011;11029;47.820;10.534;2023-04-25T07:49:53;2.55;;;1.40;;
21733;SDS011;11029;47.820;10.534;2023-04-25T07:52:20;4.07;;;1.70;;
21733;SDS011;11029;47.820;10.534;2023-04-25T07:54:52;4.43;;;1.55;;
21733;SDS011;11029;47.820;10.534;2023-04-25T07:57:26;4.95;;;1.55;;
21733;SDS011;11029;47.820;10.534;2023-04-25T07:59:55;2.95;;;1.52;;
21733;SDS011;11029;47.820;10.534;2023-04-25T08:02:22;3.92;;;1.70;;
21733;SDS011;11029;47.820;10.534;2023-04-25T08:04:48;3.65;;;1.60;;
21733;SDS011;11029;47.820;10.534;2023-04-25T08:07:16;4.13;;;1.90;;
21733;SDS011;11029;47.820;10.534;2023-04-25T08:09:49;6.30;;;1.77;;
21733;SDS011;11029;47.820;10.534;2023-04-25T08:12:23;1.85;;;1.40;;
21733;SDS011;11029;47.820;10.534;2023-04-25T08:14:51;3.53;;;1.88;;
21733;SDS011;11029;47.820;10.534;2023-04-25T08:17:18;3.17;;;1.42;;
21733;SDS011;11029;47.820;10.534;2023-04-25T08:19:45;3.63;;;1.65;;
21733;SDS011;11029;47.820;10.534;2023-04-25T08:22:21;4.35;;;1.60;;
21733;SDS011;11029;47.820;10.534;2023-04-25T08:25:10;4.75;;;1.60;;
21733;SDS011;11029;47.820;10.534;2023-04-25T08:27:38;3.42;;;1.63;;
21733;SDS011;11029;47.820;10.534;2023-04-25T08:30:05;4.25;;;1.50;;
21733;SDS011;11029;47.820;10.534;2023-04-25T08:32:34;4.38;;;1.70;;
21733;SDS011;11029;47.820;10.534;2023-04-25T08:35:22;5.18;;;1.70;;
21733;SDS011;11029;47.820;10.534;2023-04-25T08:37:49;3.63;;;1.70;;
21733;SDS011;11029;47.820;10.534;2023-04-25T08:40:18;3.55;;;1.58;;
21733;SDS011;11029;47.820;10.534;2023-04-25T08:42:55;5.45;;;1.92;;
21733;SDS011;11029;47.820;10.534;2023-04-25T08:45:24;3.15;;;1.70;;
21733;SDS011;11029;47.820;10.534;2023-04-25T08:47:53;6.68;;;1.80;;
21733;SDS011;11029;47.820;10.534;2023-04-25T08:50:23;4.05;;;1.70;;
21733;SDS011;11029;47.820;10.534;2023-04-25T08:52:53;5.95;;;1.70;;
21733;SDS011;11029;47.820;10.534;2023-04-25T08:55:21;3.78;;;1.88;;
21733;SDS011;11029;47.820;10.534;2023-04-25T08:57:52;4.63;;;2.10;;
21733;SDS011;11029;47.820;10.534;2023-04-25T09:00:21;4.43;;;2.05;;
21733;SDS011;11029;47.820;10.534;2023-04-25T09:02:49;2.72;;;2.00;;
21733;SDS011;11029;47.820;10.534;2023-04-25T09:05:16;3.90;;;1.58;;
21733;SDS011;11029;47.820;10.534;2023-04-25T09:07:47;2.63;;;1.90;;
21733;SDS011;11029;47.820;10.534;2023-04-25T09:10:15;2.50;;;1.60;;
21733;SDS011;11029;47.820;10.534;2023-04-25T09:12:43;4.10;;;2.00;;
21733;SDS011;11029;47.820;10.534;2023-04-25T09:15:10;3.47;;;1.67;;
21733;SDS011;11029;47.820;10.534;2023-04-25T09:17:54;1.50;;;1.20;;
21733;SDS011;11029;47.820;10.534;2023-04-25T09:20:30;1.90;;;1.13;;
21733;SDS011;11029;47.820;10.534;2023-04-25T09:23:01;2.85;;;1.35;;
21733;SDS011;11029;47.820;10.534;2023-04-25T09:25:34;2.72;;;1.15;;
21733;SDS011;11029;47.820;10.534;2023-04-25T09:28:06;2.83;;;1.00;;
21733;SDS011;11029;47.820;10.534;2023-04-25T09:30:34;2.22;;;1.00;;
21733;SDS011;11029;47.820;10.534;2023-04-25T09:33:09;2.15;;;1.10;;
21733;SDS011;11029;47.820;10.534;2023-04-25T09:35:40;1.60;;;1.25;;
21733;SDS011;11029;47.820;10.534;2023-04-25T09:38:14;1.50;;;1.20;;
21733;SDS011;11029;47.820;10.534;2023-04-25T09:40:51;2.30;;;1.52;;
21733;SDS011;11029;47.820;10.534;2023-04-25T09:43:29;2.45;;;1.77;;
21733;SDS011;11029;47.820;10.534;2023-04-25T09:45:56;4.13;;;1.80;;
21733;SDS011;11029;47.820;10.534;2023-04-25T09:48:27;2.22;;;1.80;;
21733;SDS011;11029;47.820;10.534;2023-04-25T09:53:35;2.60;;;1.38;;
21733;SDS011;11029;47.820;10.534;2023-04-25T09:56:13;2.53;;;1.70;;
21733;SDS011;11029;47.820;10.534;2023-04-25T09:58:40;3.22;;;1.85;;
21733;SDS011;11029;47.820;10.534;2023-04-25T10:01:09;2.00;;;1.85;;
21733;SDS011;11029;47.820;10.534;2023-04-25T10:03:48;2.67;;;1.85;;
21733;SDS011;11029;47.820;10.534;2023-04-25T10:06:33;2.40;;;1.70;;
21733;SDS011;11029;47.820;10.534;2023-04-25T10:09:01;1.75;;;1.65;;
21733;SDS011;11029;47.820;10.534;2023-04-25T10:11:30;1.50;;;1.27;;
21733;SDS011;11029;47.820;10.534;2023-04-25T10:13:58;1.00;;;0.90;;
21733;SDS011;11029;47.820;10.534;2023-04-25T10:16:26;2.03;;;0.98;;
21733;SDS011;11029;47.820;10.534;2023-04-25T10:19:03;2.20;;;0.98;;
21733;SDS011;11029;47.820;10.534;2023-04-25T10:21:30;1.15;;;0.90;;
21733;SDS011;11029;47.820;10.534;2023-04-25T10:23:58;3.35;;;1.15;;
21733;SDS011;11029;47.820;10.534;2023-04-25T10:26:26;1.48;;;1.20;;
21733;SDS011;11029;47.820;10.534;2023-04-25T10:29:03;1.95;;;0.93;;
21733;SDS011;11029;47.820;10.534;2023-04-25T10:31:30;1.00;;;0.80;;
21733;SDS011;11029;47.820;10.534;2023-04-25T10:33:58;1.20;;;0.82;;
21733;SDS011;11029;47.820;10.534;2023-04-25T10:36:25;0.63;;;0.63;;
21733;SDS011;11029;47.820;10.534;2023-04-25T10:38:58;1.52;;;0.73;;
21733;SDS011;11029;47.820;10.534;2023-04-25T10:41:45;0.70;;;0.63;;
21733;SDS011;11029;47.820;10.534;2023-04-25T10:44:13;0.65;;;0.60;;
21733;SDS011;11029;47.820;10.534;2023-04-25T10:46:40;1.13;;;0.50;;
21733;SDS011;11029;47.820;10.534;2023-04-25T10:49:07;0.60;;;0.60;;
21733;SDS011;11029;47.820;10.534;2023-04-25T10:51:40;0.68;;;0.60;;
21733;SDS011;11029;47.820;10.534;2023-04-25T10:54:21;0.70;;;0.60;;
21733;SDS011;11029;47.820;10.534;2023-04-25T10:56:51;0.68;;;0.65;;
21733;SDS011;11029;47.820;10.534;2023-04-25T10:59:19;2.05;;;0.70;;
21733;SDS011;11029;47.820;10.534;2023-04-25T11:01:52;0.60;;;0.60;;
21733;SDS011;11029;47.820;10.534;2023-04-25T11:04:31;0.75;;;0.55;;
21733;SDS011;11029;47.820;10.534;2023-04-25T11:09:39;0.60;;;0.60;;
21733;SDS011;11029;47.820;10.534;2023-04-25T11:12:07;0.68;;;0.60;;
21733;SDS011;11029;47.820;10.534;2023-04-25T11:14:35;0.88;;;0.70;;
21733;SDS011;11029;47.820;10.534;2023-04-25T11:17:02;0.57;;;0.50;;
21733;SDS011;11029;47.820;10.534;2023-04-25T11:19:29;0.40;;;0.40;;
21733;SDS011;11029;47.820;10.534;2023-04-25T11:21:56;0.40;;;0.40;;
21733;SDS011;11029;47.820;10.534;2023-04-25T11:24:29;0.40;;;0.40;;
21733;SDS011;11029;47.820;10.534;2023-04-25T11:27:00;0.25;;;0.25;;
21733;SDS011;11029;47.820;10.534;2023-04-25T11:29:30;0.50;;;0.50;;
21733;SDS011;11029;47.820;10.534;2023-04-25T11:31:58;0.20;;;0.20;;
21733;SDS011;11029;47.820;10.534;2023-04-25T11:34:27;0.20;;;0.20;;
21733;SDS011;11029;47.820;10.534;2023-04-25T11:36:57;0.30;;;0.20;;
21733;SDS011;11029;47.820;10.534;2023-04-25T11:39:24;0.13;;;0.13;;
21733;SDS011;11029;47.820;10.534;2023-04-25T11:41:52;0.30;;;0.30;;
21733;SDS011;11029;47.820;10.534;2023-04-25T11:44:19;0.20;;;0.20;;
21733;SDS011;11029;47.820;10.534;2023-04-25T11:46:47;0.20;;;0.20;;
21733;SDS011;11029;47.820;10.534;2023-04-25T11:49:14;0.30;;;0.30;;
21733;SDS011;11029;47.820;10.534;2023-04-25T11:51:44;0.30;;;0.30;;
21733;SDS011;11029;47.820;10.534;2023-04-25T11:54:12;0.60;;;0.43;;
21733;SDS011;11029;47.820;10.534;2023-04-25T11:56:42;0.43;;;0.40;;
21733;SDS011;11029;47.820;10.534;2023-04-25T11:59:10;0.35;;;0.35;;
21733;SDS011;11029;47.820;10.534;2023-04-25T12:01:39;0.38;;;0.38;;
21733;SDS011;11029;47.820;10.534;2023-04-25T12:06:41;1.17;;;0.65;;
21733;SDS011;11029;47.820;10.534;2023-04-25T12:09:10;0.80;;;0.70;;
21733;SDS011;11029;47.820;10.534;2023-04-25T12:11:42;0.70;;;0.43;;
21733;SDS011;11029;47.820;10.534;2023-04-25T12:14:10;0.50;;;0.50;;
21733;SDS011;11029;47.820;10.534;2023-04-25T12:16:44;0.50;;;0.50;;
21733;SDS011;11029;47.820;10.534;2023-04-25T12:19:15;0.57;;;0.57;;
21733;SDS011;11029;47.820;10.534;2023-04-25T12:21:43;1.20;;;0.70;;
21733;SDS011;11029;47.820;10.534;2023-04-25T12:24:24;0.50;;;0.50;;
21733;SDS011;11029;47.820;10.534;2023-04-25T12:27:01;0.57;;;0.50;;
21733;SDS011;11029;47.820;10.534;2023-04-25T12:29:31;0.52;;;0.52;;
21733;SDS011;11029;47.820;10.534;2023-04-25T12:32:13;0.65;;;0.52;;
21733;SDS011;11029;47.820;10.534;2023-04-25T12:34:40;0.38;;;0.38;;
21733;SDS011;11029;47.820;10.534;2023-04-25T12:37:06;0.60;;;0.50;;
21733;SDS011;11029;47.820;10.534;2023-04-25T12:39:33;0.75;;;0.60;;
21733;SDS011;11029;47.820;10.534;2023-04-25T12:42:00;0.95;;;0.70;;
21733;SDS011;11029;47.820;10.534;2023-04-25T12:44:27;0.50;;;0.50;;
21733;SDS011;11029;47.820;10.534;2023-04-25T12:46:54;0.60;;;0.60;;
21733;SDS011;11029;47.820;10.534;2023-04-25T12:49:21;1.85;;;0.80;;
21733;SDS011;11029;47.820;10.534;2023-04-25T12:51:48;0.60;;;0.60;;
21733;SDS011;11029;47.820;10.534;2023-04-25T12:54:15;0.75;;;0.75;;
21733;SDS011;11029;47.820;10.534;2023-04-25T12:56:42;0.90;;;0.75;;
21733;SDS011;11029;47.820;10.534;2023-04-25T12:59:09;0.60;;;0.60;;
21733;SDS011;11029;47.820;10.534;2023-04-25T13:01:35;0.85;;;0.80;;
21733;SDS011;11029;47.820;10.534;2023-04-25T13:04:02;0.70;;;0.70;;
21733;SDS011;11029;47.820;10.534;2023-04-25T13:06:29;0.70;;;0.70;;
21733;SDS011;11029;47.820;10.534;2023-04-25T13:08:57;0.70;;;0.70;;
21733;SDS011;11029;47.820;10.534;2023-04-25T13:11:23;0.80;;;0.80;;
21733;SDS011;11029;47.820;10.534;2023-04-25T13:13:50;1.63;;;1.05;;
21733;SDS011;11029;47.820;10.534;2023-04-25T13:16:18;0.73;;;0.70;;
21733;SDS011;11029;47.820;10.534;2023-04-25T13:18:47;1.92;;;1.00;;
21733;SDS011;11029;47.820;10.534;2023-04-25T13:21:14;1.15;;;1.00;;
21733;SDS011;11029;47.820;10.534;2023-04-25T13:23:40;1.10;;;0.88;;
21733;SDS011;11029;47.820;10.534;2023-04-25T13:26:09;1.25;;;0.90;;
21733;SDS011;11029;47.820;10.534;2023-04-25T13:28:36;0.80;;;0.80;;
21733;SDS011;11029;47.820;10.534;2023-04-25T13:31:03;1.00;;;0.98;;
21733;SDS011;11029;47.820;10.534;2023-04-25T13:33:29;0.93;;;0.90;;
21733;SDS011;11029;47.820;10.534;2023-04-25T13:35:56;0.90;;;0.90;;
21733;SDS011;11029;47.820;10.534;2023-04-25T13:38:24;0.88;;;0.88;;
21733;SDS011;11029;47.820;10.534;2023-04-25T13:40:51;1.77;;;1.67;;
21733;SDS011;11029;47.820;10.534;2023-04-25T13:43:19;1.80;;;1.60;;
21733;SDS011;11029;47.820;10.534;2023-04-25T13:45:48;6.03;;;2.95;;
21733;SDS011;11029;47.820;10.534;2023-04-25T13:48:15;0.80;;;0.80;;
21733;SDS011;11029;47.820;10.534;2023-04-25T13:50:42;0.80;;;0.80;;
21733;SDS011;11029;47.820;10.534;2023-04-25T13:53:09;0.75;;;0.75;;
21733;SDS011;11029;47.820;10.534;2023-04-25T13:55:36;0.90;;;0.90;;
21733;SDS011;11029;47.820;10.534;2023-04-25T13:58:03;3.97;;;2.90;;
21733;SDS011;11029;47.820;10.534;2023-04-25T14:00:35;9.48;;;4.78;;
21733;SDS011;11029;47.820;10.534;2023-04-25T14:03:04;12.63;;;5.80;;
21733;SDS011;11029;47.820;10.534;2023-04-25T14:05:35;3.75;;;2.22;;
21733;SDS011;11029;47.820;10.534;2023-04-25T14:08:05;4.10;;;2.28;;
21733;SDS011;11029;47.820;10.534;2023-04-25T14:10:33;21.45;;;9.82;;
21733;SDS011;11029;47.820;10.534;2023-04-25T14:13:00;5.50;;;3.17;;
21733;SDS011;11029;47.820;10.534;2023-04-25T14:15:28;1.40;;;1.30;;
21733;SDS011;11029;47.820;10.534;2023-04-25T14:17:57;1.70;;;1.00;;
21733;SDS011;11029;47.820;10.534;2023-04-25T14:20:24;0.50;;;0.50;;
21733;SDS011;11029;47.820;10.534;2023-04-25T14:22:51;0.43;;;0.43;;
21733;SDS011;11029;47.820;10.534;2023-04-25T14:25:20;0.70;;;0.70;;
21733;SDS011;11029;47.820;10.534;2023-04-25T14:27:47;4.25;;;3.28;;
21733;SDS011;11029;47.820;10.534;2023-04-25T14:30:19;3.33;;;2.95;;
21733;SDS011;11029;47.820;10.534;2023-04-25T14:32:50;1.38;;;1.25;;
21733;SDS011;11029;47.820;10.534;2023-04-25T14:35:17;1.55;;;1.45;;
21733;SDS011;11029;47.820;10.534;2023-04-25T14:37:44;2.92;;;2.10;;
21733;SDS011;11029;47.820;10.534;2023-04-25T14:40:11;2.63;;;2.13;;
21733;SDS011;11029;47.820;10.534;2023-04-25T14:42:39;0.80;;;0.80;;
21733;SDS011;11029;47.820;10.534;2023-04-25T14:45:07;0.50;;;0.50;;
21733;SDS011;11029;47.820;10.534;2023-04-25T14:47:37;1.13;;;1.00;;
21733;SDS011;11029;47.820;10.534;2023-04-25T14:50:05;0.98;;;0.98;;
21733;SDS011;11029;47.820;10.534;2023-04-25T14:52:33;0.80;;;0.80;;
21733;SDS011;11029;47.820;10.534;2023-04-25T14:55:00;1.90;;;1.65;;
21733;SDS011;11029;47.820;10.534;2023-04-25T14:57:34;1.27;;;0.90;;
21733;SDS011;11029;47.820;10.534;2023-04-25T15:00:01;1.13;;;1.00;;
21733;SDS011;11029;47.820;10.534;2023-04-25T15:02:31;1.27;;;1.08;;